Time;durP1;ratioP1;P1;durP2;ratioP2;P2;SDS_P1;SDS_P2;PMS_P1;PMS_P2;Temp;Humidity;BMP_temperature;BMP_pressure;BME280_temperature;BME280_humidity;BME280_pressure;Samples;Min_cycle;Max_cycle;Signal;HPM_P1;HPM_P2
2021/04/30 00:01:15;;;;;;;18.90;15.13;;;;;;;;;;5094090;28;20384;-71
2021/04/30 00:03:41;;;;;;;24.63;15.90;;;;;;;;;;5093889;28;20122;-71
2021/04/30 00:06:06;;;;;;;19.80;15.30;;;;;;;;;;5092945;28;20032;-71
2021/04/30 00:08:31;;;;;;;19.88;15.73;;;;;;;;;;5093830;28;20062;-71
2021/04/30 00:10:57;;;;;;;19.05;15.70;;;;;;;;;;5094161;28;20126;-71
2021/04/30 00:13:23;;;;;;;21.17;17.27;;;;;;;;;;5092241;28;20024;-72
2021/04/30 00:15:48;;;;;;;21.45;16.83;;;;;;;;;;5094095;28;20035;-71
2021/04/30 00:18:14;;;;;;;23.15;17.83;;;;;;;;;;5094011;28;20070;-71
2021/04/30 00:20:42;;;;;;;28.25;16.90;;;;;;;;;;5092742;28;20078;-71
2021/04/30 00:23:12;;;;;;;21.58;16.90;;;;;;;;;;5093929;28;20028;-71
2021/04/30 00:25:41;;;;;;;22.30;17.73;;;;;;;;;;5093886;28;20486;-71
2021/04/30 00:28:06;;;;;;;21.88;16.85;;;;;;;;;;5093378;28;20510;-71
2021/04/30 00:30:33;;;;;;;25.85;18.55;;;;;;;;;;5093585;28;20031;-71
2021/04/30 00:32:59;;;;;;;25.50;16.25;;;;;;;;;;5092398;28;20069;-71
2021/04/30 00:35:24;;;;;;;19.85;16.00;;;;;;;;;;5093647;28;20477;-71
2021/04/30 00:37:49;;;;;;;23.95;15.68;;;;;;;;;;5093539;28;20036;-71
2021/04/30 00:40:15;;;;;;;18.02;13.13;;;;;;;;;;5093407;28;20024;-71
2021/04/30 00:42:41;;;;;;;16.13;12.63;;;;;;;;;;5093050;28;20040;-72
2021/04/30 00:45:08;;;;;;;18.55;11.90;;;;;;;;;;5093659;28;20027;-71
2021/04/30 00:47:35;;;;;;;16.23;11.85;;;;;;;;;;5092236;28;20485;-71
2021/04/30 00:50:04;;;;;;;17.25;11.32;;;;;;;;;;5093321;28;20032;-71
2021/04/30 00:52:29;;;;;;;15.85;11.45;;;;;;;;;;5093186;28;20503;-71
2021/04/30 00:54:54;;;;;;;15.00;11.15;;;;;;;;;;5093129;28;20117;-71
2021/04/30 00:57:22;;;;;;;14.30;10.70;;;;;;;;;;5093000;28;20078;-71
2021/04/30 00:59:48;;;;;;;15.10;10.45;;;;;;;;;;5093059;28;20036;-71
2021/04/30 01:02:13;;;;;;;12.10;10.23;;;;;;;;;;5091936;28;20047;-71
2021/04/30 01:04:39;;;;;;;15.02;10.48;;;;;;;;;;5092007;28;20028;-71
2021/04/30 01:07:04;;;;;;;16.17;11.02;;;;;;;;;;5093212;28;20028;-71
2021/04/30 01:09:30;;;;;;;16.08;11.10;;;;;;;;;;5093167;28;20446;-71
2021/04/30 01:11:55;;;;;;;16.63;11.55;;;;;;;;;;5093091;28;20078;-71
2021/04/30 01:14:21;;;;;;;15.25;12.13;;;;;;;;;;5091421;28;20146;-71
2021/04/30 01:16:46;;;;;;;15.45;11.73;;;;;;;;;;5093172;28;20036;-71
2021/04/30 01:19:19;;;;;;;15.90;11.75;;;;;;;;;;5093103;28;20036;-71
2021/04/30 01:21:45;;;;;;;14.00;10.98;;;;;;;;;;5092069;28;20059;-71
2021/04/30 01:24:10;;;;;;;19.52;14.15;;;;;;;;;;5092990;28;20016;-71
2021/04/30 01:26:36;;;;;;;18.17;14.25;;;;;;;;;;5093068;28;20085;-71
2021/04/30 01:29:01;;;;;;;17.33;13.50;;;;;;;;;;5092950;28;20081;-71
2021/04/30 01:31:32;;;;;;;16.02;12.98;;;;;;;;;;5093158;28;20032;-71
2021/04/30 01:33:58;;;;;;;17.38;14.30;;;;;;;;;;5097073;28;20428;-71
2021/04/30 01:36:23;;;;;;;17.70;14.15;;;;;;;;;;5095741;28;20031;-71
2021/04/30 01:38:49;;;;;;;20.50;15.05;;;;;;;;;;5095608;28;20037;-71
2021/04/30 01:41:19;;;;;;;19.55;14.55;;;;;;;;;;5095333;28;20055;-71
2021/04/30 01:43:44;;;;;;;28.55;14.93;;;;;;;;;;5096908;28;20106;-71
2021/04/30 01:46:09;;;;;;;16.13;14.23;;;;;;;;;;5097022;28;20048;-71
2021/04/30 01:48:35;;;;;;;20.73;16.52;;;;;;;;;;5095466;28;20040;-71
2021/04/30 01:51:03;;;;;;;22.33;17.20;;;;;;;;;;5096865;28;20078;-71
2021/04/30 01:53:31;;;;;;;21.77;17.23;;;;;;;;;;5096433;28;20466;-71
2021/04/30 01:55:58;;;;;;;23.45;17.95;;;;;;;;;;5095814;28;20503;-71
2021/04/30 01:58:23;;;;;;;24.40;19.17;;;;;;;;;;5096383;28;20031;-71
2021/04/30 02:00:50;;;;;;;24.73;17.13;;;;;;;;;;5096482;28;20039;-71
2021/04/30 02:03:15;;;;;;;20.63;17.38;;;;;;;;;;5096676;28;20043;-71
2021/04/30 02:05:42;;;;;;;23.45;18.10;;;;;;;;;;5095308;28;20351;-72
2021/04/30 02:08:10;;;;;;;23.95;18.58;;;;;;;;;;5096273;28;20047;-71
2021/04/30 02:10:36;;;;;;;19.75;16.33;;;;;;;;;;5094812;28;20040;-71
2021/04/30 02:13:02;;;;;;;20.98;16.67;;;;;;;;;;5096365;28;20040;-71
2021/04/30 02:15:30;;;;;;;24.45;18.52;;;;;;;;;;5096368;28;20036;-71
2021/04/30 02:17:55;;;;;;;23.23;17.80;;;;;;;;;;5096180;28;20046;-71
2021/04/30 02:20:22;;;;;;;24.00;19.13;;;;;;;;;;5096062;28;20119;-72
2021/04/30 02:22:48;;;;;;;23.48;18.63;;;;;;;;;;5095805;28;20028;-71
2021/04/30 02:25:15;;;;;;;22.27;18.00;;;;;;;;;;5095853;28;20553;-71
2021/04/30 02:27:42;;;;;;;25.08;18.85;;;;;;;;;;5095886;28;20043;-71
2021/04/30 02:30:09;;;;;;;25.65;20.35;;;;;;;;;;5094576;28;20086;-71
2021/04/30 02:32:36;;;;;;;24.40;20.77;;;;;;;;;;5096096;28;20115;-71
2021/04/30 02:35:05;;;;;;;25.23;20.08;;;;;;;;;;5095605;28;20036;-71
2021/04/30 02:37:30;;;;;;;23.00;19.38;;;;;;;;;;5095738;28;20060;-71
2021/04/30 02:39:56;;;;;;;24.50;19.70;;;;;;;;;;5094035;28;20086;-71
2021/04/30 02:42:21;;;;;;;26.48;20.98;;;;;;;;;;5095781;28;20536;-71
2021/04/30 02:44:47;;;;;;;25.50;19.92;;;;;;;;;;5094836;28;20055;-71
2021/04/30 02:47:13;;;;;;;30.67;20.40;;;;;;;;;;5095684;28;20032;-71
2021/04/30 02:49:45;;;;;;;29.77;21.70;;;;;;;;;;5095460;28;20466;-71
2021/04/30 02:52:14;;;;;;;24.27;20.80;;;;;;;;;;5095710;28;20024;-71
2021/04/30 02:54:39;;;;;;;27.20;21.63;;;;;;;;;;5095277;28;20074;-71
2021/04/30 02:57:05;;;;;;;22.38;18.77;;;;;;;;;;5095499;28;20032;-71
2021/04/30 02:59:31;;;;;;;24.17;20.13;;;;;;;;;;5095626;28;20040;-71
2021/04/30 03:01:57;;;;;;;26.33;20.83;;;;;;;;;;5094171;28;20074;-71
2021/04/30 03:04:22;;;;;;;22.63;19.42;;;;;;;;;;5095338;28;20032;-70
2021/04/30 03:06:49;;;;;;;24.08;19.73;;;;;;;;;;5093924;28;20126;-72
2021/04/30 03:09:15;;;;;;;22.70;19.52;;;;;;;;;;5093848;28;20032;-72
2021/04/30 03:11:40;;;;;;;21.63;18.70;;;;;;;;;;5094733;28;20038;-72
2021/04/30 03:14:07;;;;;;;25.63;21.45;;;;;;;;;;5095062;28;20043;-72
2021/04/30 03:16:33;;;;;;;25.05;20.02;;;;;;;;;;5093884;28;20115;-72
2021/04/30 03:18:58;;;;;;;27.90;20.73;;;;;;;;;;5094925;28;20548;-73
2021/04/30 03:21:23;;;;;;;25.63;19.35;;;;;;;;;;5095194;28;20032;-72
2021/04/30 03:23:49;;;;;;;22.60;18.20;;;;;;;;;;5095137;28;20119;-72
2021/04/30 03:26:14;;;;;;;21.45;18.67;;;;;;;;;;5094678;28;20063;-72
2021/04/30 03:28:40;;;;;;;25.65;20.02;;;;;;;;;;5094958;28;20036;-72
2021/04/30 03:31:05;;;;;;;23.80;20.25;;;;;;;;;;5094740;28;20089;-72
2021/04/30 03:33:31;;;;;;;24.15;21.55;;;;;;;;;;5094641;28;20044;-73
2021/04/30 03:35:56;;;;;;;25.25;21.10;;;;;;;;;;5094582;28;20040;-73
2021/04/30 03:38:21;;;;;;;25.83;20.50;;;;;;;;;;5094669;28;20393;-72
2021/04/30 03:40:47;;;;;;;26.17;22.92;;;;;;;;;;5091704;28;20036;-72
2021/04/30 03:43:13;;;;;;;27.80;23.27;;;;;;;;;;5094419;28;20048;-71
2021/04/30 03:45:38;;;;;;;24.95;21.73;;;;;;;;;;5094485;28;20036;-71
2021/04/30 03:48:04;;;;;;;28.15;23.55;;;;;;;;;;5094270;28;20040;-72
2021/04/30 03:50:29;;;;;;;25.08;21.35;;;;;;;;;;5094035;28;20161;-72
2021/04/30 03:52:55;;;;;;;25.63;21.13;;;;;;;;;;5094087;28;20063;-72
2021/04/30 03:55:20;;;;;;;26.50;21.10;;;;;;;;;;5092789;28;20106;-72
2021/04/30 03:57:46;;;;;;;26.02;22.65;;;;;;;;;;5094165;28;20040;-72
2021/04/30 04:00:12;;;;;;;28.58;21.98;;;;;;;;;;5093953;28;20028;-72
2021/04/30 04:02:41;;;;;;;25.40;21.77;;;;;;;;;;5092988;28;20039;-72
2021/04/30 04:05:06;;;;;;;28.70;22.23;;;;;;;;;;5094228;28;20036;-72
2021/04/30 04:07:32;;;;;;;25.67;22.15;;;;;;;;;;5094050;28;20042;-72
2021/04/30 04:09:57;;;;;;;27.92;21.95;;;;;;;;;;5093889;28;20100;-72
2021/04/30 04:12:23;;;;;;;29.90;23.85;;;;;;;;;;5093931;28;20089;-72
2021/04/30 04:14:48;;;;;;;24.50;20.88;;;;;;;;;;5093894;28;20036;-72
2021/04/30 04:17:16;;;;;;;26.63;21.75;;;;;;;;;;5092362;28;20089;-72
2021/04/30 04:19:41;;;;;;;28.70;21.73;;;;;;;;;;5093521;28;20043;-72
2021/04/30 04:22:07;;;;;;;26.42;21.13;;;;;;;;;;5093976;28;20040;-72
2021/04/30 04:24:32;;;;;;;25.00;21.77;;;;;;;;;;5092385;28;20028;-72
2021/04/30 04:26:57;;;;;;;25.77;20.20;;;;;;;;;;5093354;28;20150;-72
2021/04/30 04:29:23;;;;;;;26.33;21.20;;;;;;;;;;5093640;28;20084;-72
2021/04/30 04:31:48;;;;;;;23.92;19.95;;;;;;;;;;5093540;28;20063;-72
2021/04/30 04:34:14;;;;;;;23.80;20.33;;;;;;;;;;5093393;28;20112;-72
2021/04/30 04:36:39;;;;;;;22.77;19.27;;;;;;;;;;5093504;28;20136;-72
2021/04/30 04:39:05;;;;;;;24.65;21.27;;;;;;;;;;5092551;28;20032;-72
2021/04/30 04:41:30;;;;;;;23.83;20.30;;;;;;;;;;5091523;28;20493;-72
2021/04/30 04:43:56;;;;;;;22.52;19.35;;;;;;;;;;5092250;28;20024;-72
2021/04/30 04:46:21;;;;;;;23.27;19.20;;;;;;;;;;5093364;28;20124;-72
2021/04/30 04:48:46;;;;;;;25.40;20.45;;;;;;;;;;5093347;28;20466;-72
2021/04/30 04:51:12;;;;;;;22.45;18.98;;;;;;;;;;5092271;28;20040;-72
2021/04/30 04:53:37;;;;;;;20.65;18.15;;;;;;;;;;5091800;28;20024;-72
2021/04/30 04:56:03;;;;;;;21.88;18.10;;;;;;;;;;5092268;28;20040;-72
2021/04/30 04:58:28;;;;;;;23.38;18.63;;;;;;;;;;5093239;28;20068;-72
2021/04/30 05:00:54;;;;;;;21.70;18.83;;;;;;;;;;5093277;28;20047;-72
2021/04/30 05:03:19;;;;;;;21.17;18.85;;;;;;;;;;5093207;28;20473;-72
2021/04/30 05:05:45;;;;;;;21.33;17.80;;;;;;;;;;5091727;28;20115;-72
2021/04/30 05:08:10;;;;;;;20.35;18.33;;;;;;;;;;5092578;28;20489;-72
2021/04/30 05:10:35;;;;;;;20.13;16.52;;;;;;;;;;5091925;28;20036;-72
2021/04/30 05:13:01;;;;;;;18.60;16.65;;;;;;;;;;5093291;28;20036;-72
2021/04/30 05:15:27;;;;;;;20.20;16.92;;;;;;;;;;5092959;28;20067;-72
2021/04/30 05:17:52;;;;;;;20.63;18.42;;;;;;;;;;5091341;28;20028;-72
2021/04/30 05:20:17;;;;;;;22.15;18.88;;;;;;;;;;5092980;28;20119;-72
2021/04/30 05:22:44;;;;;;;22.55;18.83;;;;;;;;;;5093300;28;20031;-72
2021/04/30 05:25:11;;;;;;;21.52;17.52;;;;;;;;;;5093199;28;20097;-72
2021/04/30 05:27:40;;;;;;;19.73;17.63;;;;;;;;;;5093119;28;20028;-72
2021/04/30 05:30:08;;;;;;;20.83;17.95;;;;;;;;;;5091748;28;20036;-72
2021/04/30 05:32:33;;;;;;;19.75;16.88;;;;;;;;;;5092859;28;20050;-72
2021/04/30 05:35:00;;;;;;;19.23;16.73;;;;;;;;;;5092625;28;20040;-72
2021/04/30 05:37:26;;;;;;;19.23;16.05;;;;;;;;;;5091694;28;20036;-74
2021/04/30 05:39:51;;;;;;;17.25;15.45;;;;;;;;;;5090240;28;20089;-74
2021/04/30 05:42:17;;;;;;;21.58;16.58;;;;;;;;;;5092788;28;20055;-75
2021/04/30 05:44:42;;;;;;;17.42;15.63;;;;;;;;;;5092915;28;20103;-75
2021/04/30 05:47:08;;;;;;;19.30;15.50;;;;;;;;;;5091585;28;20036;-75
2021/04/30 05:49:33;;;;;;;18.30;15.90;;;;;;;;;;5091360;28;20028;-74
2021/04/30 05:51:59;;;;;;;17.02;14.23;;;;;;;;;;5091714;28;20454;-75
2021/04/30 05:54:24;;;;;;;20.52;16.00;;;;;;;;;;5092715;28;20040;-76
2021/04/30 05:56:50;;;;;;;16.88;14.77;;;;;;;;;;5092844;28;20032;-75
2021/04/30 05:59:15;;;;;;;16.50;14.75;;;;;;;;;;5092692;28;20154;-74
2021/04/30 06:01:41;;;;;;;17.48;14.75;;;;;;;;;;5090095;28;20497;-75
2021/04/30 06:04:06;;;;;;;15.48;13.82;;;;;;;;;;5092838;28;20036;-76
2021/04/30 06:06:32;;;;;;;18.77;14.00;;;;;;;;;;5092824;28;20036;-75
2021/04/30 06:08:57;;;;;;;16.05;14.38;;;;;;;;;;5091262;28;20093;-75
2021/04/30 06:11:23;;;;;;;14.80;13.23;;;;;;;;;;5091538;28;20111;-75
2021/04/30 06:13:48;;;;;;;15.77;13.52;;;;;;;;;;5092448;28;20836;-74
2021/04/30 06:16:14;;;;;;;14.60;13.05;;;;;;;;;;5092817;28;20110;-75
2021/04/30 06:18:39;;;;;;;14.35;12.85;;;;;;;;;;5093172;28;20118;-74
2021/04/30 06:21:05;;;;;;;13.43;11.70;;;;;;;;;;5096345;28;20040;-74
2021/04/30 06:23:30;;;;;;;13.32;11.90;;;;;;;;;;5096154;28;20031;-75
2021/04/30 06:25:56;;;;;;;13.07;11.60;;;;;;;;;;5096035;28;20044;-75
2021/04/30 06:28:21;;;;;;;13.95;11.13;;;;;;;;;;5096089;28;20032;-74
2021/04/30 06:30:47;;;;;;;13.27;11.90;;;;;;;;;;5095878;28;20036;-73
2021/04/30 06:33:13;;;;;;;14.52;13.00;;;;;;;;;;5094745;28;20040;-74
2021/04/30 06:35:38;;;;;;;13.20;11.80;;;;;;;;;;5093694;28;20032;-74
2021/04/30 06:38:04;;;;;;;12.75;10.85;;;;;;;;;;5062056;28;20380;-74
2021/04/30 06:40:30;;;;;;;12.52;11.25;;;;;;;;;;5068928;28;20032;-74
2021/04/30 06:42:56;;;;;;;12.70;11.27;;;;;;;;;;5063928;28;20401;-74
2021/04/30 06:45:22;;;;;;;13.07;11.73;;;;;;;;;;5065788;28;20040;-74
2021/04/30 06:47:47;;;;;;;12.77;11.35;;;;;;;;;;5069353;28;20032;-74
2021/04/30 06:50:12;;;;;;;12.10;10.85;;;;;;;;;;5067167;28;20474;-73
2021/04/30 06:52:39;;;;;;;14.50;11.18;;;;;;;;;;5077273;28;20730;-73
2021/04/30 06:55:06;;;;;;;12.90;11.35;;;;;;;;;;5083840;28;20031;-74
2021/04/30 06:57:32;;;;;;;13.43;11.20;;;;;;;;;;5093799;28;20440;-74
2021/04/30 06:59:57;;;;;;;13.23;11.13;;;;;;;;;;5093825;28;20043;-74
2021/04/30 07:02:23;;;;;;;12.40;11.10;;;;;;;;;;5093909;28;20059;-74
2021/04/30 07:04:49;;;;;;;12.80;11.50;;;;;;;;;;5095223;28;20039;-74
2021/04/30 07:07:15;;;;;;;11.77;10.52;;;;;;;;;;5095472;28;20043;-74
2021/04/30 07:09:40;;;;;;;11.77;10.57;;;;;;;;;;5095030;28;20367;-74
2021/04/30 07:12:06;;;;;;;12.93;11.63;;;;;;;;;;5095085;28;20484;-74
2021/04/30 07:14:32;;;;;;;12.07;10.88;;;;;;;;;;5094220;28;20044;-74
2021/04/30 07:16:57;;;;;;;11.90;10.45;;;;;;;;;;5095142;28;20081;-74
2021/04/30 07:19:22;;;;;;;12.23;10.65;;;;;;;;;;5093993;28;20032;-74
2021/04/30 07:21:48;;;;;;;11.60;10.43;;;;;;;;;;5095133;28;20050;-74
2021/04/30 07:24:14;;;;;;;13.00;10.90;;;;;;;;;;5094952;28;20024;-74
2021/04/30 07:26:39;;;;;;;12.15;10.95;;;;;;;;;;5089154;28;20040;-74
2021/04/30 07:29:05;;;;;;;11.50;10.38;;;;;;;;;;5079825;28;20029;-75
2021/04/30 07:31:31;;;;;;;13.45;12.05;;;;;;;;;;5074302;28;20060;-76
2021/04/30 07:33:56;;;;;;;12.82;11.45;;;;;;;;;;5074547;28;20505;-75
2021/04/30 07:36:22;;;;;;;13.77;12.25;;;;;;;;;;5074605;28;20387;-75
2021/04/30 07:38:47;;;;;;;17.27;13.18;;;;;;;;;;5074497;28;20042;-76
2021/04/30 07:41:13;;;;;;;13.88;12.43;;;;;;;;;;5075888;28;20044;-75
2021/04/30 07:43:39;;;;;;;13.23;11.80;;;;;;;;;;5094476;28;20478;-75
2021/04/30 07:46:04;;;;;;;13.02;11.65;;;;;;;;;;5094397;28;20024;-74
2021/04/30 07:48:30;;;;;;;13.48;12.07;;;;;;;;;;5091824;28;20031;-75
2021/04/30 07:50:59;;;;;;;13.85;12.25;;;;;;;;;;5094176;28;20389;-75
2021/04/30 07:53:25;;;;;;;12.48;11.10;;;;;;;;;;5094386;28;20476;-73
2021/04/30 07:55:51;;;;;;;13.10;11.18;;;;;;;;;;5093323;28;20028;-73
2021/04/30 07:58:16;;;;;;;13.32;11.85;;;;;;;;;;5094028;28;20043;-76
2021/04/30 08:00:42;;;;;;;12.60;11.13;;;;;;;;;;5093028;28;20431;-76
2021/04/30 08:03:07;;;;;;;12.40;11.10;;;;;;;;;;5094240;28;20040;-75
2021/04/30 08:05:32;;;;;;;13.48;11.93;;;;;;;;;;5093730;28;20039;-76
2021/04/30 08:08:03;;;;;;;11.60;10.45;;;;;;;;;;5093951;28;20055;-76
2021/04/30 08:10:29;;;;;;;11.93;10.73;;;;;;;;;;5091147;28;20046;-76
2021/04/30 08:12:54;;;;;;;12.18;10.80;;;;;;;;;;5093329;28;20040;-77
2021/04/30 08:15:21;;;;;;;11.88;10.57;;;;;;;;;;5093286;28;20039;-75
2021/04/30 08:17:47;;;;;;;12.57;11.27;;;;;;;;;;5094558;28;20032;-76
2021/04/30 08:20:12;;;;;;;12.32;11.02;;;;;;;;;;5094134;28;20492;-77
2021/04/30 08:22:39;;;;;;;12.73;11.52;;;;;;;;;;5093509;28;20584;-78
2021/04/30 08:25:05;;;;;;;15.07;12.07;;;;;;;;;;5083171;28;20033;-77
2021/04/30 08:27:31;;;;;;;12.43;10.20;;;;;;;;;;5074842;28;20036;-76
2021/04/30 08:29:56;;;;;;;11.38;9.88;;;;;;;;;;5074478;28;20107;-77
2021/04/30 08:32:21;;;;;;;12.70;11.30;;;;;;;;;;5075853;28;20082;-81
2021/04/30 08:34:47;;;;;;;11.65;9.90;;;;;;;;;;5076389;28;20425;-79
2021/04/30 08:37:13;;;;;;;12.13;10.68;;;;;;;;;;5076160;28;20052;-81
2021/04/30 08:39:40;;;;;;;10.88;9.77;;;;;;;;;;5075165;28;20036;-79
2021/04/30 08:42:05;;;;;;;10.95;9.80;;;;;;;;;;5064809;28;20049;-78
2021/04/30 08:44:30;;;;;;;11.35;10.15;;;;;;;;;;5053598;28;20475;-77
2021/04/30 08:46:56;;;;;;;12.68;10.60;;;;;;;;;;5055392;28;20117;-77
2021/04/30 08:49:21;;;;;;;11.50;10.32;;;;;;;;;;5063438;28;20036;-76
2021/04/30 08:51:47;;;;;;;10.82;9.73;;;;;;;;;;5073750;28;20033;-77
2021/04/30 08:54:16;;;;;;;10.98;9.70;;;;;;;;;;5094653;28;20055;-82
2021/04/30 08:56:48;;;;;;;11.32;9.35;;;;;;;;;;5100579;28;20042;-82
2021/04/30 08:59:14;;;;;;;11.57;10.38;;;;;;;;;;5099392;28;20074;-78
2021/04/30 09:01:40;;;;;;;11.52;9.98;;;;;;;;;;5098996;28;20448;-80
2021/04/30 09:04:07;;;;;;;10.60;9.50;;;;;;;;;;5098111;28;20032;-79
2021/04/30 09:06:35;;;;;;;11.25;9.65;;;;;;;;;;5101332;28;20036;-81
2021/04/30 09:09:12;;;;;;;11.38;10.20;;;;;;;;;;5097599;28;20059;-82
2021/04/30 09:11:43;;;;;;;16.20;10.48;;;;;;;;;;5100830;28;20028;-81
2021/04/30 09:14:35;;;;;;;12.13;10.57;;;;;;;;;;5098785;28;20055;-82
2021/04/30 09:17:15;;;;;;;13.60;10.63;;;;;;;;;;5097482;28;20043;-80
2021/04/30 09:19:46;;;;;;;12.40;10.80;;;;;;;;;;5098213;28;20028;-82
2021/04/30 09:22:12;;;;;;;10.38;9.32;;;;;;;;;;5099370;28;20043;-81
2021/04/30 09:24:38;;;;;;;10.98;9.88;;;;;;;;;;5097019;28;20059;-81
2021/04/30 09:27:05;;;;;;;12.23;9.90;;;;;;;;;;5095625;28;20081;-79
2021/04/30 09:29:32;;;;;;;10.68;9.57;;;;;;;;;;5096270;28;20040;-80
2021/04/30 09:31:59;;;;;;;11.77;9.52;;;;;;;;;;5096896;28;20478;-80
2021/04/30 09:34:28;;;;;;;9.98;8.93;;;;;;;;;;5098474;28;20401;-81
2021/04/30 09:37:09;;;;;;;10.30;9.10;;;;;;;;;;5097054;28;20189;-79
2021/04/30 09:39:56;;;;;;;12.65;10.07;;;;;;;;;;5085842;28;20435;-80
2021/04/30 09:42:26;;;;;;;11.63;9.60;;;;;;;;;;5075227;28;20059;-77
2021/04/30 09:44:57;;;;;;;11.63;10.43;;;;;;;;;;5075584;28;20054;-78
2021/04/30 09:47:27;;;;;;;12.60;11.30;;;;;;;;;;5076182;28;20037;-79
2021/04/30 09:49:55;;;;;;;10.55;9.43;;;;;;;;;;5075458;28;20041;-79
2021/04/30 09:52:21;;;;;;;10.75;9.65;;;;;;;;;;5076415;28;20520;-78
2021/04/30 09:54:48;;;;;;;11.13;10.02;;;;;;;;;;5078816;28;20036;-78
2021/04/30 09:57:17;;;;;;;11.40;9.13;;;;;;;;;;5077466;28;20043;-77
2021/04/30 09:59:52;;;;;;;11.63;10.43;;;;;;;;;;5076971;28;20028;-77
2021/04/30 10:02:19;;;;;;;12.43;11.13;;;;;;;;;;5077221;28;20041;-78
2021/04/30 10:04:49;;;;;;;12.85;11.32;;;;;;;;;;5077498;28;20599;-77
2021/04/30 10:07:24;;;;;;;23.35;14.00;;;;;;;;;;5077090;28;20094;-77
2021/04/30 10:10:04;;;;;;;15.38;12.48;;;;;;;;;;5087042;28;20036;-77
2021/04/30 10:12:30;;;;;;;14.63;13.05;;;;;;;;;;5096939;28;20128;-77
2021/04/30 10:14:56;;;;;;;13.63;12.15;;;;;;;;;;5095615;28;20036;-77
2021/04/30 10:17:22;;;;;;;13.80;11.40;;;;;;;;;;5097770;28;20050;-78
2021/04/30 10:19:49;;;;;;;13.95;12.15;;;;;;;;;;5098407;28;20087;-77
2021/04/30 10:22:19;;;;;;;13.70;12.13;;;;;;;;;;5097469;28;20403;-77
2021/04/30 10:24:47;;;;;;;13.13;11.73;;;;;;;;;;5099702;28;20370;-78
2021/04/30 10:27:16;;;;;;;17.13;13.73;;;;;;;;;;5099471;28;20031;-78
2021/04/30 10:29:42;;;;;;;16.30;13.80;;;;;;;;;;5097122;28;20039;-77
2021/04/30 10:32:11;;;;;;;18.98;15.75;;;;;;;;;;5097029;28;20124;-77
2021/04/30 10:34:39;;;;;;;16.33;14.52;;;;;;;;;;5093876;28;20401;-77
2021/04/30 10:37:05;;;;;;;14.77;12.68;;;;;;;;;;5077165;28;20482;-77
2021/04/30 10:39:34;;;;;;;14.70;13.18;;;;;;;;;;5085329;28;20031;-78
2021/04/30 10:42:13;;;;;;;16.75;14.05;;;;;;;;;;5097130;28;20052;-78
2021/04/30 10:44:43;;;;;;;12.70;11.15;;;;;;;;;;5096732;28;20112;-76
2021/04/30 10:47:11;;;;;;;14.05;11.93;;;;;;;;;;5093650;28;20032;-77
2021/04/30 10:49:37;;;;;;;15.88;13.77;;;;;;;;;;5075404;28;20397;-77
2021/04/30 10:52:15;;;;;;;16.58;13.55;;;;;;;;;;5074355;28;20058;-77
2021/04/30 10:54:42;;;;;;;14.63;12.50;;;;;;;;;;5075992;28;20040;-80
2021/04/30 10:57:18;;;;;;;13.65;12.18;;;;;;;;;;5080333;28;20024;-75
2021/04/30 10:59:46;;;;;;;16.95;11.60;;;;;;;;;;5098498;28;20553;-79
2021/04/30 11:02:30;;;;;;;13.90;12.40;;;;;;;;;;5100707;28;20040;-81
2021/04/30 11:05:14;;;;;;;13.88;12.38;;;;;;;;;;5095533;28;20139;-78
2021/04/30 11:07:50;;;;;;;14.15;12.52;;;;;;;;;;5095751;28;20058;-77
2021/04/30 11:10:22;;;;;;;15.02;12.77;;;;;;;;;;5094591;28;20500;-76
2021/04/30 11:12:54;;;;;;;12.50;11.20;;;;;;;;;;5094696;28;20028;-76
2021/04/30 11:15:20;;;;;;;12.88;11.13;;;;;;;;;;5094197;28;20040;-77
2021/04/30 11:18:00;;;;;;;14.52;12.20;;;;;;;;;;5095126;28;20027;-77
2021/04/30 11:20:29;;;;;;;11.88;10.52;;;;;;;;;;5095944;28;20534;-81
2021/04/30 11:23:16;;;;;;;14.45;11.52;;;;;;;;;;5097958;28;20497;-77
2021/04/30 11:25:54;;;;;;;11.68;10.40;;;;;;;;;;5056464;28;20497;-77
2021/04/30 11:28:20;;;;;;;13.80;11.82;;;;;;;;;;5055236;28;20033;-77
2021/04/30 11:31:12;;;;;;;17.02;12.82;;;;;;;;;;5087957;28;20031;-78
2021/04/30 11:33:40;;;;;;;14.27;12.35;;;;;;;;;;5099266;28;20510;-78
2021/04/30 11:36:08;;;;;;;13.98;11.30;;;;;;;;;;5100423;28;20036;-79
2021/04/30 11:38:37;;;;;;;15.15;12.88;;;;;;;;;;5099407;28;20027;-79
2021/04/30 11:41:03;;;;;;;12.38;10.63;;;;;;;;;;5099648;28;20093;-79
2021/04/30 11:43:28;;;;;;;14.38;12.85;;;;;;;;;;5100698;28;20040;-79
2021/04/30 11:45:55;;;;;;;15.40;13.18;;;;;;;;;;5099864;28;20032;-79
2021/04/30 11:48:29;;;;;;;13.18;11.50;;;;;;;;;;5101191;28;20036;-79
2021/04/30 11:51:01;;;;;;;15.15;12.25;;;;;;;;;;5094655;28;20041;-79
2021/04/30 11:53:27;;;;;;;13.38;11.98;;;;;;;;;;5079580;28;20032;-79
2021/04/30 11:55:53;;;;;;;14.05;12.13;;;;;;;;;;5078438;28;20037;-79
2021/04/30 11:58:20;;;;;;;14.90;13.05;;;;;;;;;;5079909;28;20032;-79
2021/04/30 12:00:52;;;;;;;16.02;12.82;;;;;;;;;;5080615;28;20032;-79
2021/04/30 12:03:17;;;;;;;14.93;12.75;;;;;;;;;;5080427;28;20036;-79
2021/04/30 12:05:44;;;;;;;16.52;13.80;;;;;;;;;;5079328;28;20429;-80
2021/04/30 12:08:10;;;;;;;20.90;14.13;;;;;;;;;;5080631;28;20040;-79
2021/04/30 12:10:37;;;;;;;17.30;14.82;;;;;;;;;;5081204;28;20028;-79
2021/04/30 12:13:06;;;;;;;16.20;14.43;;;;;;;;;;5080813;28;20025;-79
2021/04/30 12:15:42;;;;;;;19.50;14.15;;;;;;;;;;5080749;28;20063;-79
2021/04/30 12:18:08;;;;;;;15.10;12.90;;;;;;;;;;5081124;28;20040;-78
2021/04/30 12:20:40;;;;;;;18.33;13.63;;;;;;;;;;5102623;28;20500;-78
2021/04/30 12:23:08;;;;;;;23.23;13.80;;;;;;;;;;5083211;28;20028;-78
2021/04/30 12:25:47;;;;;;;18.20;14.20;;;;;;;;;;5102380;28;20448;-78
2021/04/30 12:28:25;;;;;;;16.45;13.73;;;;;;;;;;5101282;28;20040;-78
2021/04/30 12:30:56;;;;;;;19.40;13.57;;;;;;;;;;5100852;28;20040;-78
2021/04/30 12:33:32;;;;;;;16.30;13.85;;;;;;;;;;5099208;28;20051;-77
2021/04/30 12:36:02;;;;;;;16.30;13.90;;;;;;;;;;5094558;28;20051;-77
2021/04/30 12:38:27;;;;;;;18.88;14.55;;;;;;;;;;5096619;28;20039;-77
2021/04/30 12:40:54;;;;;;;17.33;14.65;;;;;;;;;;5093040;28;20083;-77
2021/04/30 12:43:27;;;;;;;15.93;13.45;;;;;;;;;;5092495;28;20063;-78
2021/04/30 12:45:54;;;;;;;15.60;13.55;;;;;;;;;;5094151;28;20493;-78
2021/04/30 12:48:24;;;;;;;16.35;12.25;;;;;;;;;;5095444;28;20044;-78
2021/04/30 12:50:49;;;;;;;16.48;13.75;;;;;;;;;;5098115;28;20038;-79
2021/04/30 12:53:16;;;;;;;16.92;14.88;;;;;;;;;;5102938;28;20056;-79
2021/04/30 12:55:42;;;;;;;15.85;12.95;;;;;;;;;;5103236;28;20031;-79
2021/04/30 12:58:13;;;;;;;21.85;17.02;;;;;;;;;;5102136;28;20067;-79
2021/04/30 13:01:06;;;;;;;16.23;13.98;;;;;;;;;;5111601;28;20032;-79
2021/04/30 13:03:44;;;;;;;15.65;13.95;;;;;;;;;;5112567;28;20055;-79
2021/04/30 13:06:12;;;;;;;17.25;13.68;;;;;;;;;;5107972;28;20054;-79
2021/04/30 13:08:40;;;;;;;18.90;14.60;;;;;;;;;;5110852;28;20056;-79
2021/04/30 13:11:16;;;;;;;20.02;13.98;;;;;;;;;;5110096;28;20080;-79
2021/04/30 13:14:03;;;;;;;16.67;14.32;;;;;;;;;;5108754;28;20039;-79
2021/04/30 13:16:46;;;;;;;15.82;14.13;;;;;;;;;;5109684;28;20028;-79
2021/04/30 13:19:11;;;;;;;15.32;13.35;;;;;;;;;;5108470;28;20385;-79
2021/04/30 13:21:39;;;;;;;16.30;13.50;;;;;;;;;;5109077;28;20028;-79
2021/04/30 13:24:19;;;;;;;15.45;12.93;;;;;;;;;;5109246;28;20464;-79
2021/04/30 13:27:05;;;;;;;15.15;13.50;;;;;;;;;;5106290;28;20036;-79
2021/04/30 13:29:39;;;;;;;16.13;12.85;;;;;;;;;;5112356;28;20091;-79
2021/04/30 13:32:08;;;;;;;16.63;14.05;;;;;;;;;;5114146;28;20059;-79
2021/04/30 13:34:39;;;;;;;16.00;13.02;;;;;;;;;;5111566;28;20043;-79
2021/04/30 13:37:08;;;;;;;15.73;13.25;;;;;;;;;;5110549;28;20047;-79
2021/04/30 13:39:37;;;;;;;15.57;13.45;;;;;;;;;;5111232;28;20104;-79
2021/04/30 13:42:09;;;;;;;20.50;16.25;;;;;;;;;;5109846;28;20113;-79
2021/04/30 13:44:34;;;;;;;19.08;15.68;;;;;;;;;;5109938;28;20389;-79
2021/04/30 13:46:59;;;;;;;17.95;14.05;;;;;;;;;;5110021;28;20043;-79
2021/04/30 13:49:50;;;;;;;20.42;14.75;;;;;;;;;;5109341;28;20040;-79
2021/04/30 13:52:16;;;;;;;20.13;15.52;;;;;;;;;;5106506;28;20044;-79
2021/04/30 13:54:42;;;;;;;16.90;15.05;;;;;;;;;;5104051;28;20466;-79
2021/04/30 13:57:08;;;;;;;19.77;17.10;;;;;;;;;;5111756;28;20086;-80
2021/04/30 13:59:35;;;;;;;18.42;15.63;;;;;;;;;;5112071;28;20126;-80
2021/04/30 14:02:01;;;;;;;23.23;16.17;;;;;;;;;;5110875;28;20042;-80
2021/04/30 14:04:27;;;;;;;18.10;15.48;;;;;;;;;;5112282;28;20107;-79
2021/04/30 14:06:52;;;;;;;17.60;15.35;;;;;;;;;;5112333;28;20162;-79
2021/04/30 14:09:18;;;;;;;19.92;15.70;;;;;;;;;;5111456;28;20054;-80
2021/04/30 14:11:44;;;;;;;20.08;17.30;;;;;;;;;;5111637;28;20032;-79
2021/04/30 14:14:09;;;;;;;22.42;15.27;;;;;;;;;;5111741;28;20043;-79
2021/04/30 14:16:35;;;;;;;18.33;15.32;;;;;;;;;;5111607;28;20020;-79
2021/04/30 14:19:00;;;;;;;19.45;16.40;;;;;;;;;;5111612;28;20040;-79
2021/04/30 14:21:25;;;;;;;23.10;16.63;;;;;;;;;;5111287;28;20438;-80